Time;durP1;ratioP1;P1;durP2;ratioP2;P2;SDS_P1;SDS_P2;PMS_P1;PMS_P2;Temp;Humidity;BMP_temperature;BMP_pressure;BME280_temperature;BME280_humidity;BME280_pressure;Samples;Min_cycle;Max_cycle;Signal;HPM_P1;HPM_P2
2022/04/24 00:00:32;;;;;;;21.60;13.78;;;;;;;8.27;60.61;99748.41;1696136;84;21952;-70
2022/04/24 00:03:00;;;;;;;24.85;14.60;;;;;;;8.28;60.53;99751.44;1672727;84;21089;-70
2022/04/24 00:05:26;;;;;;;19.92;12.82;;;;;;;8.28;60.46;99750.10;1668444;85;21335;-70
2022/04/24 00:07:52;;;;;;;21.40;13.50;;;;;;;8.26;60.36;99750.76;1704389;82;21422;-71
2022/04/24 00:10:18;;;;;;;26.42;14.30;;;;;;;8.25;60.29;99750.42;1727162;82;21001;-71
2022/04/24 00:12:45;;;;;;;24.87;14.65;;;;;;;8.21;60.26;99745.11;1693647;83;21128;-72
2022/04/24 00:15:11;;;;;;;22.32;14.13;;;;;;;8.14;60.19;99740.16;1665276;83;21526;-71
2022/04/24 00:17:37;;;;;;;25.82;15.65;;;;;;;8.02;60.16;99738.88;1657079;86;21679;-71
2022/04/24 00:20:04;;;;;;;21.93;14.90;;;;;;;8.02;60.16;99738.88;1657133;86;21519;-71
2022/04/24 00:22:30;;;;;;;25.92;14.95;;;;;;;7.97;60.12;99737.22;1671806;83;21563;-71
2022/04/24 00:24:56;;;;;;;24.05;15.00;;;;;;;7.92;60.08;99734.23;1705340;83;22135;-71
2022/04/24 00:27:22;;;;;;;23.02;14.80;;;;;;;7.86;60.06;99726.95;1713291;83;21046;-71
2022/04/24 00:29:48;;;;;;;27.30;14.65;;;;;;;7.82;60.08;99721.64;1712599;83;21102;-71
2022/04/24 00:32:14;;;;;;;23.42;14.30;;;;;;;7.79;60.09;99721.48;1708119;83;21039;-71
2022/04/24 00:34:41;;;;;;;24.23;13.08;;;;;;;7.75;60.09;99712.70;1677281;83;21118;-71
2022/04/24 00:37:07;;;;;;;22.65;12.75;;;;;;;7.77;60.11;99717.36;1676031;84;21819;-71
2022/04/24 00:39:33;;;;;;;19.85;12.30;;;;;;;7.79;60.08;99716.67;1706645;83;21023;-71
2022/04/24 00:41:59;;;;;;;15.85;10.82;;;;;;;7.83;60.08;99718.00;1695793;83;21007;-71
2022/04/24 00:44:27;;;;;;;17.37;11.00;;;;;;;7.85;60.04;99719.48;1676254;85;21013;-71
2022/04/24 00:47:03;;;;;;;17.15;11.08;;;;;;;7.87;60.01;99716.66;1657245;86;21055;-71
2022/04/24 00:49:30;;;;;;;19.87;9.90;;;;;;;7.88;59.98;99715.16;1656893;86;21170;-71
2022/04/24 00:51:56;;;;;;;16.85;9.95;;;;;;;7.89;59.94;99719.97;1657815;83;20979;-70
2022/04/24 00:54:22;;;;;;;20.80;10.85;;;;;;;7.90;59.90;99716.33;1687023;83;21064;-70
2022/04/24 00:56:48;;;;;;;17.07;10.55;;;;;;;7.92;59.87;99711.66;1713363;83;21012;-70
2022/04/24 00:59:15;;;;;;;18.17;10.35;;;;;;;7.89;59.84;99709.34;1713337;83;21075;-70
2022/04/24 01:01:41;;;;;;;17.45;9.85;;;;;;;7.86;59.82;99707.04;1707759;83;21776;-70
2022/04/24 01:04:10;;;;;;;16.73;10.38;;;;;;;7.85;59.78;99701.39;1671764;85;21037;-70
2022/04/24 01:06:39;;;;;;;21.10;11.00;;;;;;;7.82;59.77;99703.89;1652398;86;21573;-70
2022/04/24 01:09:17;;;;;;;17.32;9.80;;;;;;;7.77;59.78;99699.61;1693421;83;21514;-70
2022/04/24 01:11:47;;;;;;;16.57;9.53;;;;;;;7.74;59.78;99697.79;1708530;84;21081;-70
2022/04/24 01:14:15;;;;;;;16.47;10.27;;;;;;;7.72;59.76;99705.91;1708269;84;21771;-70
2022/04/24 01:16:41;;;;;;;15.95;9.43;;;;;;;7.70;59.76;99707.08;1703971;84;21365;-70
2022/04/24 01:19:07;;;;;;;16.55;9.70;;;;;;;7.68;59.77;99702.42;1677661;84;21065;-70
2022/04/24 01:21:33;;;;;;;14.10;9.23;;;;;;;7.64;59.77;99697.12;1703302;84;21076;-70
2022/04/24 01:23:59;;;;;;;17.37;9.68;;;;;;;7.61;59.77;99694.80;1701409;84;21069;-70
2022/04/24 01:26:25;;;;;;;16.40;9.70;;;;;;;7.53;59.82;99692.98;1703928;84;21138;-70
2022/04/24 01:28:51;;;;;;;16.93;9.85;;;;;;;7.49;59.85;99685.86;1662478;84;21580;-70
2022/04/24 01:31:17;;;;;;;16.67;9.50;;;;;;;7.48;59.86;99690.86;1701903;84;21409;-71
2022/04/24 01:33:45;;;;;;;17.62;10.93;;;;;;;7.46;59.88;99690.18;1703907;84;21044;-71
2022/04/24 01:36:12;;;;;;;15.20;9.28;;;;;;;7.44;59.89;99692.19;1708462;84;21056;-70
2022/04/24 01:38:40;;;;;;;16.82;9.23;;;;;;;7.42;59.90;99694.16;1695194;83;21177;-70
2022/04/24 01:41:06;;;;;;;17.77;9.48;;;;;;;7.40;59.94;99686.88;1704973;83;21489;-70
2022/04/24 01:43:32;;;;;;;12.85;8.58;;;;;;;7.38;59.94;99675.63;1653064;84;21588;-70
2022/04/24 01:45:58;;;;;;;14.63;9.55;;;;;;;7.40;59.96;99678.92;1693867;83;21517;-70
2022/04/24 01:48:24;;;;;;;16.30;9.35;;;;;;;7.43;59.98;99679.91;1675175;84;21525;-70
2022/04/24 01:50:54;;;;;;;16.40;8.93;;;;;;;7.33;60.08;99654.06;1652336;86;21983;-70
2022/04/24 01:53:20;;;;;;;;;;;;;;;7.33;60.08;99654.06;1667768;83;21029;-70
2022/04/24 01:55:47;;;;;;;17.23;8.48;;;;;;;7.46;60.01;99676.08;1708534;84;20211;-70
2022/04/24 01:58:13;;;;;;;15.15;8.50;;;;;;;7.44;60.00;99670.96;1680061;84;21089;-70
2022/04/24 02:00:39;;;;;;;12.43;8.00;;;;;;;7.47;60.00;99675.92;1652809;86;21148;-70
2022/04/24 02:03:05;;;;;;;13.85;8.43;;;;;;;7.46;59.99;99676.08;1652258;86;21022;-70
2022/04/24 02:05:31;;;;;;;14.95;7.55;;;;;;;7.43;60.00;99675.92;1651485;86;21067;-70
2022/04/24 02:07:57;;;;;;;11.80;8.10;;;;;;;7.43;59.98;99675.92;1659729;83;21129;-70
2022/04/24 02:10:23;;;;;;;14.58;7.60;;;;;;;7.45;60.00;99676.61;1698466;83;21028;-70
2022/04/24 02:12:49;;;;;;;13.10;7.78;;;;;;;7.47;59.97;99674.60;1706998;83;21024;-70
2022/04/24 02:15:17;;;;;;;10.50;7.40;;;;;;;7.47;59.96;99678.58;1707797;84;21098;-70
2022/04/24 02:17:43;;;;;;;12.25;7.67;;;;;;;7.47;59.94;99675.92;1693289;84;21056;-70
2022/04/24 02:20:10;;;;;;;13.55;7.45;;;;;;;7.44;59.93;99670.12;1651544;86;21070;-70
2022/04/24 02:22:36;;;;;;;14.47;7.62;;;;;;;7.43;59.93;99665.31;1652132;86;21623;-70
2022/04/24 02:25:04;;;;;;;14.50;7.15;;;;;;;7.45;59.89;99666.00;1651986;86;21039;-70
2022/04/24 02:27:30;;;;;;;15.00;7.28;;;;;;;7.48;59.88;99669.63;1665294;83;21511;-70
2022/04/24 02:29:56;;;;;;;12.07;7.28;;;;;;;7.52;59.83;99664.33;1652113;86;20998;-70
2022/04/24 02:32:22;;;;;;;10.95;7.87;;;;;;;7.51;59.77;99663.98;1651939;86;21043;-70
2022/04/24 02:34:48;;;;;;;13.25;6.92;;;;;;;7.50;59.76;99664.98;1651861;86;21086;-71
2022/04/24 02:37:14;;;;;;;14.55;7.72;;;;;;;7.51;59.74;99665.31;1670750;84;20928;-70
2022/04/24 02:39:40;;;;;;;13.35;7.47;;;;;;;7.50;59.69;99670.28;1703228;83;21178;-70
2022/04/24 02:42:06;;;;;;;12.05;7.72;;;;;;;7.48;59.68;99668.80;1707122;83;21012;-70
2022/04/24 02:44:32;;;;;;;12.80;7.40;;;;;;;7.48;59.67;99670.12;1698614;83;21033;-70
2022/04/24 02:46:59;;;;;;;12.23;7.12;;;;;;;7.47;59.63;99666.64;1661948;84;21063;-70
2022/04/24 02:49:25;;;;;;;12.10;7.25;;;;;;;7.46;59.61;99662.33;1651883;86;21032;-70
2022/04/24 02:51:51;;;;;;;11.28;7.90;;;;;;;7.49;59.60;99660.66;1651897;86;21180;-71
2022/04/24 02:54:17;;;;;;;14.58;6.87;;;;;;;7.49;59.57;99658.00;1686307;83;21644;-70
2022/04/24 02:56:42;;;;;;;12.65;7.28;;;;;;;7.44;59.55;99652.89;1657972;83;20900;-70
2022/04/24 02:59:09;;;;;;;11.63;7.05;;;;;;;7.38;59.54;99645.12;1696190;83;21059;-70
2022/04/24 03:01:35;;;;;;;14.35;8.35;;;;;;;7.37;59.56;99647.92;1707331;83;21615;-70
2022/04/24 03:04:01;;;;;;;13.18;7.70;;;;;;;7.32;59.57;99641.78;1684953;84;21910;-70
2022/04/24 03:06:27;;;;;;;14.03;8.23;;;;;;;7.27;59.57;99637.50;1676950;85;21059;-70
2022/04/24 03:08:53;;;;;;;15.32;8.23;;;;;;;7.25;59.60;99636.82;1717783;82;21028;-70
2022/04/24 03:11:19;;;;;;;12.15;7.90;;;;;;;7.22;59.60;99631.86;1703314;84;21492;-70
2022/04/24 03:13:46;;;;;;;11.18;7.97;;;;;;;7.19;59.63;99626.89;1679406;84;21420;-70
2022/04/24 03:16:12;;;;;;;13.40;7.12;;;;;;;7.18;59.64;99621.77;1676264;84;21790;-70
2022/04/24 03:18:38;;;;;;;13.18;7.72;;;;;;;7.17;59.67;99624.92;1703284;84;20952;-71
2022/04/24 03:21:04;;;;;;;14.90;7.85;;;;;;;7.13;59.67;99612.98;1703155;84;21020;-70
2022/04/24 03:23:30;;;;;;;11.55;7.47;;;;;;;7.10;59.70;99615.14;1674815;84;21170;-70
2022/04/24 03:25:56;;;;;;;13.13;7.55;;;;;;;7.10;59.74;99612.00;1642888;87;21037;-70
2022/04/24 03:28:22;;;;;;;19.60;9.38;;;;;;;7.11;59.75;99616.28;1687538;83;21071;-70
2022/04/24 03:30:48;;;;;;;17.48;8.58;;;;;;;7.12;59.76;99611.81;1713376;83;21019;-70
2022/04/24 03:33:14;;;;;;;12.10;7.92;;;;;;;7.07;59.77;99609.69;1701293;83;21062;-70
2022/04/24 03:35:40;;;;;;;11.65;7.53;;;;;;;7.03;59.82;99605.70;1684916;85;21087;-70
2022/04/24 03:38:06;;;;;;;15.53;7.78;;;;;;;6.88;59.52;99595.44;1695718;83;21034;-70
2022/04/24 03:40:32;;;;;;;14.83;8.05;;;;;;;6.88;59.52;99595.44;1710059;83;21941;-71
2022/04/24 03:42:58;;;;;;;13.35;7.72;;;;;;;6.79;59.94;99593.79;1698298;83;21023;-70
2022/04/24 03:45:24;;;;;;;14.95;8.38;;;;;;;6.73;59.97;99595.75;1657296;86;21519;-70
2022/04/24 03:47:51;;;;;;;10.05;7.28;;;;;;;6.69;60.04;99596.58;1657707;84;21565;-70
2022/04/24 03:50:19;;;;;;;12.45;7.40;;;;;;;6.67;60.08;99600.39;1713269;83;21035;-70
2022/04/24 03:52:46;;;;;;;9.83;7.70;;;;;;;6.64;60.12;99596.75;1707549;83;21685;-70
2022/04/24 03:55:12;;;;;;;13.43;7.92;;;;;;;6.63;60.16;99592.44;1676411;82;21088;-70
2022/04/24 03:57:38;;;;;;;20.75;7.97;;;;;;;6.64;60.20;99587.48;1671889;85;21056;-70
2022/04/24 04:00:07;;;;;;;11.60;7.33;;;;;;;6.66;60.24;99596.08;1688286;82;21045;-70
2022/04/24 04:02:45;;;;;;;12.67;7.43;;;;;;;6.64;60.25;99595.43;1711504;83;21696;-70
2022/04/24 04:05:13;;;;;;;17.98;7.30;;;;;;;6.68;60.30;99595.44;1655557;86;21241;-70
2022/04/24 04:07:39;;;;;;;10.03;6.47;;;;;;;6.70;60.31;99593.44;1661949;83;21609;-70
2022/04/24 04:10:07;;;;;;;11.08;6.40;;;;;;;6.73;60.35;99588.64;1708618;83;21101;-70
2022/04/24 04:12:33;;;;;;;12.73;7.03;;;;;;;6.80;60.37;99586.15;1710370;83;21029;-70
2022/04/24 04:15:06;;;;;;;11.63;6.30;;;;;;;6.95;60.38;99593.77;1682552;85;21071;-70
2022/04/24 04:17:32;;;;;;;11.97;6.20;;;;;;;7.10;60.37;99593.44;1702965;83;21263;-70
2022/04/24 04:19:59;;;;;;;10.78;6.45;;;;;;;7.28;60.34;99594.05;1711579;83;21047;-70
2022/04/24 04:22:25;;;;;;;11.95;5.83;;;;;;;7.57;60.32;99592.66;1711565;83;21045;-70
2022/04/24 04:24:52;;;;;;;11.38;6.67;;;;;;;8.43;60.49;99595.63;1661312;83;20883;-71
2022/04/24 04:27:19;;;;;;;10.05;6.10;;;;;;;9.36;60.19;99592.18;1655411;86;21100;-70
2022/04/24 04:29:45;;;;;;;9.30;5.65;;;;;;;10.14;59.77;99590.30;1655460;86;21167;-71
2022/04/24 04:32:12;;;;;;;8.65;6.30;;;;;;;10.71;59.32;99585.48;1671926;83;21604;-71
2022/04/24 04:34:38;;;;;;;8.25;5.50;;;;;;;11.03;58.80;99591.13;1682888;85;21585;-71
2022/04/24 04:37:04;;;;;;;9.45;5.50;;;;;;;11.39;58.24;99593.66;1682890;85;21486;-71
2022/04/24 04:39:30;;;;;;;9.28;5.30;;;;;;;11.51;57.58;99588.08;1705496;83;21040;-71
2022/04/24 04:41:56;;;;;;;9.23;5.25;;;;;;;11.69;56.93;99593.42;1690996;83;21151;-71
2022/04/24 04:44:22;;;;;;;6.53;5.47;;;;;;;11.23;56.10;99596.61;1655370;86;21003;-71
2022/04/24 04:46:49;;;;;;;8.10;5.30;;;;;;;11.32;56.19;99597.30;1655364;86;21501;-71
2022/04/24 04:49:15;;;;;;;8.05;5.10;;;;;;;11.99;56.01;99593.53;1708988;83;20962;-71
2022/04/24 04:51:41;;;;;;;7.35;4.72;;;;;;;12.40;55.31;99598.30;1698389;83;21051;-71
2022/04/24 04:54:07;;;;;;;8.58;5.15;;;;;;;12.77;54.60;99594.80;1655232;86;21342;-71
2022/04/24 04:56:33;;;;;;;8.60;5.58;;;;;;;12.93;53.85;99597.07;1655333;86;21028;-71
2022/04/24 04:58:59;;;;;;;9.83;5.17;;;;;;;13.16;53.23;99593.50;1655552;86;21126;-71
2022/04/24 05:01:25;;;;;;;6.72;5.33;;;;;;;13.32;52.54;99594.44;1658078;83;21128;-71
2022/04/24 05:03:51;;;;;;;6.53;4.97;;;;;;;13.25;51.62;99596.30;1707094;83;21593;-71
2022/04/24 05:06:17;;;;;;;8.10;5.53;;;;;;;12.98;51.36;99598.63;1716026;83;21776;-71
2022/04/24 05:08:43;;;;;;;11.45;6.15;;;;;;;12.41;51.36;99599.97;1712335;83;21085;-71
2022/04/24 05:11:09;;;;;;;8.80;5.33;;;;;;;12.14;51.63;99600.08;1689016;83;21090;-72
2022/04/24 05:13:36;;;;;;;7.28;5.28;;;;;;;11.93;51.68;99598.30;1670717;84;21090;-72
2022/04/24 05:16:02;;;;;;;6.72;5.45;;;;;;;11.74;51.63;99607.89;1677097;85;21074;-72
2022/04/24 05:18:28;;;;;;;8.68;5.58;;;;;;;11.76;51.60;99613.02;1661777;85;21164;-72
2022/04/24 05:20:55;;;;;;;7.58;5.60;;;;;;;11.75;51.49;99611.39;1662706;83;21066;-72
2022/04/24 05:23:21;;;;;;;7.70;5.33;;;;;;;11.79;51.43;99609.95;1665515;83;21055;-72
2022/04/24 05:25:48;;;;;;;7.45;5.33;;;;;;;11.85;51.34;99611.85;1718341;83;21048;-72
2022/04/24 05:28:14;;;;;;;8.55;5.30;;;;;;;11.94;51.19;99622.67;1718103;83;21491;-72
2022/04/24 05:30:40;;;;;;;9.10;5.40;;;;;;;11.98;51.10;99611.91;1692232;83;21574;-72
2022/04/24 05:33:07;;;;;;;8.70;5.20;;;;;;;12.18;51.03;99617.34;1662296;83;21069;-72
2022/04/24 05:35:33;;;;;;;9.73;5.65;;;;;;;12.29;50.89;99616.77;1697760;83;21015;-72
2022/04/24 05:37:59;;;;;;;8.98;5.25;;;;;;;12.33;50.74;99621.52;1716989;83;21035;-72
2022/04/24 05:40:25;;;;;;;9.73;5.75;;;;;;;12.37;50.67;99621.44;1695418;83;21051;-72
2022/04/24 05:42:55;;;;;;;9.18;5.67;;;;;;;12.49;50.52;99623.83;1661668;86;21958;-73
2022/04/24 05:45:24;;;;;;;11.33;5.70;;;;;;;12.48;50.39;99623.54;1661850;86;21058;-72
2022/04/24 05:47:51;;;;;;;11.53;5.85;;;;;;;12.51;50.27;99628.48;1688708;83;21027;-72
2022/04/24 05:50:17;;;;;;;7.25;5.30;;;;;;;12.60;50.14;99625.61;1703171;83;21487;-73
2022/04/24 05:52:43;;;;;;;9.98;6.35;;;;;;;12.65;49.99;99628.52;1662254;86;21039;-72
2022/04/24 05:55:09;;;;;;;15.25;9.50;;;;;;;12.60;49.70;99627.77;1661877;86;21134;-72
2022/04/24 05:57:36;;;;;;;11.50;7.70;;;;;;;12.50;49.59;99621.98;1662071;86;21080;-72
2022/04/24 06:00:06;;;;;;;15.75;6.78;;;;;;;12.81;49.67;99629.45;1662539;83;21542;-73
2022/04/24 06:02:32;;;;;;;;;;;;;;;12.86;49.38;99617.64;1688176;83;21075;-72
2022/04/24 06:04:58;;;;;;;11.43;7.17;;;;;;;12.68;49.25;99625.42;1709615;83;20207;-72
2022/04/24 06:07:24;;;;;;;11.12;6.70;;;;;;;12.63;49.19;99618.00;1710505;83;21082;-72
2022/04/24 06:09:50;;;;;;;13.30;7.65;;;;;;;12.75;49.16;99618.23;1684175;83;21481;-72
2022/04/24 06:12:17;;;;;;;9.18;6.10;;;;;;;12.78;49.04;99627.20;1683109;84;21532;-72
2022/04/24 06:14:43;;;;;;;11.93;6.95;;;;;;;12.71;48.91;99615.66;1681109;83;21028;-72
2022/04/24 06:17:09;;;;;;;10.13;7.12;;;;;;;12.64;48.77;99616.16;1710759;83;21080;-72
2022/04/24 06:19:35;;;;;;;13.10;8.00;;;;;;;12.61;48.62;99617.90;1675946;83;21176;-72
2022/04/24 06:22:01;;;;;;;13.08;7.47;;;;;;;12.51;48.52;99611.09;1670637;83;21001;-72
2022/04/24 06:24:27;;;;;;;10.15;6.75;;;;;;;12.62;48.51;99611.53;1657117;83;21859;-73
2022/04/24 06:26:53;;;;;;;10.82;7.10;;;;;;;12.64;48.39;99612.14;1709789;83;21017;-72
2022/04/24 06:29:19;;;;;;;12.33;7.10;;;;;;;12.73;48.38;99612.28;1683019;83;21047;-72
2022/04/24 06:31:45;;;;;;;9.85;6.92;;;;;;;12.78;48.37;99603.11;1655349;86;21234;-73
2022/04/24 06:34:11;;;;;;;13.18;6.55;;;;;;;13.00;48.44;99604.59;1655242;86;21063;-72
2022/04/24 06:36:38;;;;;;;11.75;7.42;;;;;;;13.28;48.49;99602.56;1656077;83;21080;-73
2022/04/24 06:39:04;;;;;;;10.08;6.70;;;;;;;13.33;48.34;99602.78;1689585;83;21073;-72
2022/04/24 06:41:30;;;;;;;10.70;6.37;;;;;;;13.31;48.26;99599.47;1711753;83;21087;-72
2022/04/24 06:43:56;;;;;;;12.63;7.08;;;;;;;13.23;48.15;99594.32;1699736;83;21182;-72
2022/04/24 06:46:23;;;;;;;11.38;7.28;;;;;;;13.17;48.16;99592.48;1702554;83;21093;-72
2022/04/24 06:48:50;;;;;;;8.18;6.47;;;;;;;13.22;48.07;99590.02;1682304;83;21489;-72
2022/04/24 06:51:16;;;;;;;11.22;7.62;;;;;;;13.17;47.99;99587.12;1685987;83;21557;-72
2022/04/24 06:53:42;;;;;;;12.75;7.30;;;;;;;13.07;47.80;99591.20;1663260;83;21048;-72
2022/04/24 06:56:08;;;;;;;11.95;6.65;;;;;;;13.06;47.81;99587.70;1692777;83;21635;-73
2022/04/24 06:58:34;;;;;;;9.85;7.12;;;;;;;13.23;47.81;99580.93;1665478;83;20995;-72
2022/04/24 07:01:00;;;;;;;10.70;6.87;;;;;;;13.42;47.72;99576.09;1663423;83;21067;-72
2022/04/24 07:03:28;;;;;;;12.33;6.62;;;;;;;13.42;47.72;99576.09;1673769;84;21085;-72
2022/04/24 07:05:56;;;;;;;13.58;8.73;;;;;;;13.50;47.71;99568.35;1717052;82;21495;-72
2022/04/24 07:08:24;;;;;;;8.53;5.97;;;;;;;13.36;47.45;99554.16;1708109;83;21207;-73
2022/04/24 07:10:52;;;;;;;7.87;5.58;;;;;;;13.46;47.46;99535.80;1680750;85;21033;-73
2022/04/24 07:13:19;;;;;;;11.35;5.97;;;;;;;13.75;47.36;99558.61;1709113;83;21470;-73
2022/04/24 07:15:45;;;;;;;8.33;5.53;;;;;;;13.86;46.90;99543.73;1695953;83;20973;-73
2022/04/24 07:18:11;;;;;;;10.68;6.33;;;;;;;13.86;46.90;99543.73;1707092;84;21487;-73
2022/04/24 07:20:37;;;;;;;13.22;5.90;;;;;;;13.93;47.02;99540.51;1677879;83;22618;-73
2022/04/24 07:23:05;;;;;;;10.58;6.15;;;;;;;13.97;46.87;99538.51;1679676;84;21018;-73
2022/04/24 07:25:43;;;;;;;8.00;5.87;;;;;;;14.21;46.85;99546.36;1676057;85;21018;-72
2022/04/24 07:28:08;;;;;;;6.00;5.40;;;;;;;14.36;46.76;99548.25;1677326;83;21087;-72
2022/04/24 07:30:34;;;;;;;14.25;6.20;;;;;;;14.48;46.63;99541.17;1654993;84;21088;-73
2022/04/24 07:33:01;;;;;;;9.83;5.30;;;;;;;14.47;46.59;99544.88;1682253;83;21142;-73
2022/04/24 07:35:29;;;;;;;8.43;6.20;;;;;;;14.50;46.50;99541.77;1692466;83;21021;-73
2022/04/24 07:37:55;;;;;;;6.70;5.80;;;;;;;14.49;46.29;99538.77;1687346;83;21021;-73
2022/04/24 07:40:23;;;;;;;7.75;4.90;;;;;;;14.63;46.25;99537.37;1652702;86;21120;-73
2022/04/24 07:42:58;;;;;;;9.20;5.65;;;;;;;14.54;45.70;99534.63;1662421;83;21208;-73
2022/04/24 07:45:32;;;;;;;7.55;5.83;;;;;;;14.54;45.67;99525.23;1684263;83;21148;-73
2022/04/24 07:47:58;;;;;;;12.50;6.25;;;;;;;14.73;45.66;99529.65;1652297;86;21027;-73
2022/04/24 07:50:27;;;;;;;6.92;5.50;;;;;;;14.81;45.69;99516.77;1649463;85;21085;-73
2022/04/24 07:52:53;;;;;;;12.75;6.58;;;;;;;14.86;45.65;99508.89;1658782;85;21586;-73
2022/04/24 07:55:22;;;;;;;13.53;5.78;;;;;;;14.78;45.49;99498.94;1642982;84;21070;-73
2022/04/24 07:57:49;;;;;;;9.98;5.30;;;;;;;14.80;45.52;99488.81;1640476;85;21910;-72
2022/04/24 08:00:17;;;;;;;7.83;5.62;;;;;;;14.88;45.39;99491.23;1640901;84;21070;-73
2022/04/24 08:03:00;;;;;;;10.23;6.12;;;;;;;14.88;45.18;99491.23;1683994;83;21052;-73
2022/04/24 08:05:30;;;;;;;11.33;4.62;;;;;;;14.83;45.02;99485.69;1678389;83;21609;-73
2022/04/24 08:08:00;;;;;;;5.40;4.50;;;;;;;15.03;45.00;99498.41;1686322;83;21543;-73
2022/04/24 08:10:29;;;;;;;7.22;5.65;;;;;;;15.01;44.62;99497.82;1690937;83;21111;-73
2022/04/24 08:12:55;;;;;;;9.30;5.55;;;;;;;15.15;44.54;99492.63;1700932;84;21015;-73
2022/04/24 08:15:21;;;;;;;7.67;5.17;;;;;;;15.16;44.36;99490.25;1700256;83;21071;-73
2022/04/24 08:17:47;;;;;;;7.58;5.50;;;;;;;15.21;44.21;99495.76;1681944;83;21041;-73
2022/04/24 08:20:15;;;;;;;7.92;4.90;;;;;;;15.32;44.13;99499.06;1656366;85;20897;-73
2022/04/24 08:22:47;;;;;;;6.58;4.95;;;;;;;15.36;43.85;99504.30;1708802;82;21082;-73
2022/04/24 08:25:17;;;;;;;7.80;4.60;;;;;;;15.30;43.55;99501.68;1673590;85;21002;-73
2022/04/24 08:27:43;;;;;;;7.53;4.25;;;;;;;15.27;43.46;99510.98;1687550;84;25961;-73
2022/04/24 08:30:10;;;;;;;6.70;3.98;;;;;;;15.35;43.34;99508.02;1671819;84;21062;-72
2022/04/24 08:32:37;;;;;;;7.17;3.85;;;;;;;15.39;43.05;99499.81;1670419;83;21020;-73
2022/04/24 08:35:06;;;;;;;5.25;3.83;;;;;;;15.42;42.77;99508.77;1680634;83;21092;-73
2022/04/24 08:37:32;;;;;;;5.75;4.05;;;;;;;15.40;42.57;99512.21;1677919;84;21013;-73
2022/04/24 08:39:58;;;;;;;7.80;4.47;;;;;;;15.34;42.26;99506.36;1687828;83;21024;-73
2022/04/24 08:42:24;;;;;;;8.48;4.17;;;;;;;15.51;42.25;99511.20;1698697;84;21095;-73
2022/04/24 08:44:51;;;;;;;9.10;4.22;;;;;;;15.67;42.08;99513.28;1676155;83;21039;-73
2022/04/24 08:47:18;;;;;;;9.93;4.12;;;;;;;15.91;42.06;99512.37;1678070;83;21500;-73
2022/04/24 08:49:45;;;;;;;7.10;4.83;;;;;;;15.95;41.80;99511.70;1683378;83;21009;-73
2022/04/24 08:52:14;;;;;;;6.15;3.95;;;;;;;16.01;41.76;99503.23;1673614;84;21019;-73
2022/04/24 08:54:41;;;;;;;6.40;3.33;;;;;;;16.25;41.79;99500.14;1679365;84;21169;-73
2022/04/24 08:57:09;;;;;;;10.18;4.95;;;;;;;16.31;41.62;99497.35;1671763;84;21035;-73
2022/04/24 08:59:37;;;;;;;11.38;4.25;;;;;;;16.32;41.57;99483.37;1672591;83;21164;-73
2022/04/24 09:02:03;;;;;;;5.60;3.77;;;;;;;16.43;41.53;99475.87;1689465;84;20996;-73
2022/04/24 09:04:33;;;;;;;5.75;4.10;;;;;;;16.44;41.30;99476.97;1675520;83;21026;-73
2022/04/24 09:07:01;;;;;;;5.92;4.50;;;;;;;16.38;41.13;99494.05;1685585;84;21108;-72
2022/04/24 09:09:28;;;;;;;4.30;3.90;;;;;;;16.30;40.99;99482.25;1677717;83;21462;-72
2022/04/24 09:12:09;;;;;;;4.12;3.58;;;;;;;16.28;40.87;99488.40;1682901;84;21180;-73
2022/04/24 09:14:35;;;;;;;9.53;3.98;;;;;;;16.27;40.74;99496.16;1683506;84;21076;-73
2022/04/24 09:17:07;;;;;;;6.35;3.67;;;;;;;16.44;40.79;99480.17;1664408;84;20945;-73
2022/04/24 09:19:33;;;;;;;6.78;4.42;;;;;;;16.58;40.64;99480.30;1698166;84;21072;-73
2022/04/24 09:22:06;;;;;;;7.17;4.72;;;;;;;16.65;40.65;99482.88;1707564;83;21028;-73
2022/04/24 09:24:55;;;;;;;5.90;4.40;;;;;;;16.52;40.42;99476.34;1691931;83;21212;-73
2022/04/24 09:27:26;;;;;;;8.43;4.30;;;;;;;16.39;40.29;99459.36;1665510;83;21102;-73
2022/04/24 09:30:07;;;;;;;10.78;5.33;;;;;;;16.33;40.20;99465.64;1667959;84;21147;-73
2022/04/24 09:32:50;;;;;;;6.45;4.60;;;;;;;16.39;40.15;99478.20;1691413;84;21032;-73
2022/04/24 09:35:32;;;;;;;8.03;5.33;;;;;;;16.31;40.11;99465.06;1693644;83;21335;-73
2022/04/24 09:38:13;;;;;;;9.23;5.10;;;;;;;16.19;40.21;99467.41;1675858;83;21909;-73
2022/04/24 09:40:48;;;;;;;7.15;4.20;;;;;;;16.30;40.30;99467.97;1674198;83;21025;-73
2022/04/24 09:43:16;;;;;;;7.62;4.60;;;;;;;16.44;40.21;99485.04;1669801;85;21062;-73
2022/04/24 09:45:56;;;;;;;6.72;4.25;;;;;;;16.29;39.89;99461.77;1673496;83;21430;-74
2022/04/24 09:48:23;;;;;;;6.45;4.67;;;;;;;16.42;39.88;99458.89;1676806;85;21022;-73
2022/04/24 09:50:49;;;;;;;6.37;4.67;;;;;;;16.49;39.82;99458.27;1662840;85;21519;-73
2022/04/24 09:53:19;;;;;;;5.83;4.37;;;;;;;16.68;39.91;99456.84;1655533;85;21078;-73
2022/04/24 09:55:45;;;;;;;6.40;4.42;;;;;;;16.91;39.80;99464.95;1652144;85;21062;-72
2022/04/24 09:58:15;;;;;;;8.13;5.42;;;;;;;16.91;39.57;99467.66;1653046;85;21076;-72
2022/04/24 10:00:41;;;;;;;9.10;5.40;;;;;;;16.80;39.33;99460.37;1650354;85;21053;-73
2022/04/24 10:03:09;;;;;;;11.38;5.78;;;;;;;16.58;39.31;99464.67;1651211;85;21776;-73
2022/04/24 10:05:37;;;;;;;12.00;6.03;;;;;;;16.46;39.29;99466.81;1652086;85;21093;-73
2022/04/24 10:08:04;;;;;;;12.80;5.55;;;;;;;16.32;39.17;99462.67;1685961;82;21065;-72
2022/04/24 10:10:30;;;;;;;7.58;5.15;;;;;;;16.29;39.10;99452.89;1695592;82;21064;-72
2022/04/24 10:12:56;;;;;;;8.10;4.87;;;;;;;16.30;39.14;99449.95;1700423;82;21060;-73
2022/04/24 10:15:23;;;;;;;9.20;5.17;;;;;;;16.44;39.31;99445.19;1639538;82;21058;-72
2022/04/24 10:18:01;;;;;;;13.85;5.12;;;;;;;16.47;39.27;99441.52;1700061;82;21655;-72
2022/04/24 10:21:05;;;;;;;7.55;4.30;;;;;;;16.55;39.27;99438.19;1697777;82;21400;-73
2022/04/24 10:23:35;;;;;;;8.80;5.45;;;;;;;16.69;39.13;99436.95;1698573;82;21496;-73
2022/04/24 10:26:01;;;;;;;5.92;4.58;;;;;;;16.93;38.94;99439.42;1681243;83;21676;-73
2022/04/24 10:28:39;;;;;;;11.57;5.72;;;;;;;17.19;39.05;99430.05;1680425;83;21831;-73
2022/04/24 10:31:05;;;;;;;11.22;5.97;;;;;;;17.45;39.09;99434.90;1681764;83;21082;-73
2022/04/24 10:33:33;;;;;;;5.00;4.03;;;;;;;17.23;38.86;99433.91;1698799;82;21080;-73
2022/04/24 10:36:14;;;;;;;8.50;4.12;;;;;;;17.40;38.88;99435.34;1698102;82;22101;-73
2022/04/24 10:38:57;;;;;;;6.62;4.25;;;;;;;17.54;38.37;99425.10;1687789;82;21081;-73
2022/04/24 10:41:24;;;;;;;10.55;4.03;;;;;;;17.48;37.69;99435.80;1666952;83;21768;-74
2022/04/24 10:43:56;;;;;;;5.75;3.98;;;;;;;17.51;37.29;99428.28;1683334;83;21076;-74
2022/04/24 10:46:30;;;;;;;6.92;4.12;;;;;;;17.42;36.98;99428.64;1678253;83;21525;-74
2022/04/24 10:49:12;;;;;;;7.35;5.75;;;;;;;17.38;36.79;99434.22;1676262;83;21561;-74
2022/04/24 10:51:40;;;;;;;5.03;4.03;;;;;;;17.50;36.74;99434.20;1647739;85;21075;-74
2022/04/24 10:54:08;;;;;;;5.78;3.72;;;;;;;17.53;36.39;99424.80;1680849;83;21071;-74
2022/04/24 10:56:36;;;;;;;5.28;4.10;;;;;;;17.27;36.08;99426.99;1678089;83;21550;-74
2022/04/24 10:59:11;;;;;;;9.18;4.83;;;;;;;17.28;36.17;99413.78;1679183;84;21039;-74
2022/04/24 11:01:40;;;;;;;9.25;4.80;;;;;;;17.42;36.13;99423.77;1684248;85;21067;-74
2022/04/24 11:04:07;;;;;;;6.60;4.65;;;;;;;17.27;35.81;99410.83;1679501;84;21012;-74
2022/04/24 11:06:33;;;;;;;6.62;4.58;;;;;;;17.08;35.92;99401.75;1678467;85;21137;-74
2022/04/24 11:09:07;;;;;;;5.22;3.98;;;;;;;17.04;36.17;99401.94;1675512;85;21037;-74
2022/04/24 11:11:34;;;;;;;7.42;3.70;;;;;;;16.95;36.23;99396.10;1675730;85;21076;-74
2022/04/24 11:14:01;;;;;;;9.13;4.25;;;;;;;17.05;36.42;99390.94;1675586;85;21046;-74
2022/04/24 11:16:27;;;;;;;9.40;4.70;;;;;;;17.06;36.41;99381.81;1675729;85;21028;-73
2022/04/24 11:18:54;;;;;;;5.95;3.95;;;;;;;17.15;36.57;99380.38;1675802;85;21958;-74
2022/04/24 11:21:21;;;;;;;4.08;3.40;;;;;;;17.29;36.52;99376.87;1675623;85;21060;-74
2022/04/24 11:23:48;;;;;;;5.05;3.47;;;;;;;17.38;36.44;99380.86;1675823;85;21009;-74
2022/04/24 11:26:14;;;;;;;7.28;4.92;;;;;;;17.41;36.30;99369.59;1675829;84;21017;-74
2022/04/24 11:28:45;;;;;;;6.33;4.17;;;;;;;17.31;36.12;99378.27;1675370;85;21029;-74
2022/04/24 11:31:17;;;;;;;5.90;3.52;;;;;;;17.22;36.13;99371.62;1675281;84;21272;-74
2022/04/24 11:33:57;;;;;;;4.83;4.33;;;;;;;17.15;36.10;99370.94;1675349;85;21116;-74